createdAt,value
2019-03-16T00:02:17.347Z,0.30
2019-03-16T00:04:48.260Z,0.30
2019-03-16T00:07:32.137Z,0.33
2019-03-16T00:09:51.843Z,0.80
2019-03-16T00:12:22.919Z,0.30
2019-03-16T00:14:53.874Z,0.40
2019-03-16T00:17:24.800Z,0.20
2019-03-16T00:19:55.791Z,0.57
2019-03-16T00:22:26.751Z,0.30
2019-03-16T00:24:57.717Z,0.60
2019-03-16T00:27:28.819Z,0.20
2019-03-16T00:29:59.776Z,0.20
2019-03-16T00:32:30.681Z,0.20
2019-03-16T00:35:01.683Z,0.30
2019-03-16T00:37:32.676Z,1.40
2019-03-16T00:40:04.732Z,0.30
2019-03-16T00:42:35.775Z,0.40
2019-03-16T00:45:09.691Z,0.20
2019-03-16T00:47:40.721Z,0.20
2019-03-16T00:50:12.688Z,0.20
2019-03-16T00:52:43.731Z,0.30
2019-03-16T00:55:14.839Z,0.97
2019-03-16T00:57:45.923Z,0.20
2019-03-16T01:00:17.855Z,0.20
2019-03-16T01:02:48.892Z,0.30
2019-03-16T01:05:19.985Z,0.20
2019-03-16T01:07:51.005Z,0.40
2019-03-16T01:10:21.964Z,0.20
2019-03-16T01:12:52.905Z,0.30
2019-03-16T01:15:23.847Z,0.20
2019-03-16T01:17:54.804Z,0.40
2019-03-16T01:20:25.779Z,0.30
2019-03-16T01:22:56.658Z,0.40
2019-03-16T01:25:27.687Z,0.37
2019-03-16T01:27:58.622Z,0.43
2019-03-16T01:30:29.556Z,0.50
2019-03-16T01:33:00.461Z,0.37
2019-03-16T01:35:31.386Z,0.57
2019-03-16T01:38:02.448Z,0.40
2019-03-16T01:40:33.453Z,0.40
2019-03-16T01:43:04.435Z,0.30
2019-03-16T01:45:35.503Z,0.60
2019-03-16T01:48:06.554Z,2.20
2019-03-16T01:50:37.629Z,0.40
2019-03-16T01:53:08.518Z,0.37
2019-03-16T01:55:39.494Z,0.60
2019-03-16T01:58:10.616Z,0.40
2019-03-16T02:00:41.627Z,0.93
2019-03-16T02:03:12.514Z,2.10
2019-03-16T02:05:43.476Z,0.50
2019-03-16T02:08:14.372Z,0.70
2019-03-16T02:10:45.276Z,0.67
2019-03-16T02:13:16.311Z,0.80
2019-03-16T02:15:47.360Z,0.50
2019-03-16T02:18:18.347Z,0.50
2019-03-16T02:20:49.356Z,0.47
2019-03-16T02:23:20.344Z,0.77
2019-03-16T02:25:51.308Z,0.83
2019-03-16T02:28:22.274Z,1.00
2019-03-16T02:30:53.421Z,1.50
2019-03-16T02:33:24.435Z,0.87
2019-03-16T02:35:55.398Z,0.50
2019-03-16T02:38:26.380Z,0.43
2019-03-16T02:40:57.372Z,0.30
2019-03-16T02:43:28.297Z,1.07
2019-03-16T02:45:59.188Z,0.50
2019-03-16T02:48:30.087Z,0.97
2019-03-16T02:51:01.033Z,0.37
2019-03-16T02:53:32.069Z,0.93
2019-03-16T02:56:03.175Z,0.70
2019-03-16T02:58:34.161Z,0.50
2019-03-16T03:01:05.336Z,0.50
2019-03-16T03:03:36.237Z,0.70
2019-03-16T03:06:07.199Z,0.50
2019-03-16T03:08:38.213Z,0.60
2019-03-16T03:11:09.164Z,0.50
2019-03-16T03:13:40.096Z,1.33
2019-03-16T03:16:11.068Z,1.03
2019-03-16T03:18:42.068Z,0.30
2019-03-16T03:21:12.979Z,0.43
2019-03-16T03:23:43.889Z,0.30
2019-03-16T03:26:14.920Z,0.50
2019-03-16T03:28:45.945Z,0.60
2019-03-16T03:31:16.974Z,0.90
2019-03-16T03:34:00.281Z,0.60
2019-03-16T03:36:20.607Z,0.33
2019-03-16T03:38:51.587Z,0.43
2019-03-16T03:41:22.566Z,1.20
2019-03-16T03:43:53.524Z,1.37
2019-03-16T03:46:24.571Z,0.60
2019-03-16T03:48:55.609Z,1.27
2019-03-16T03:51:26.535Z,0.90
2019-03-16T03:53:57.489Z,2.20
2019-03-16T03:56:28.544Z,0.80
2019-03-16T03:58:59.473Z,2.37
2019-03-16T04:01:30.421Z,3.10
2019-03-16T04:04:14.030Z,1.80
2019-03-16T04:06:34.119Z,2.40
2019-03-16T04:09:07.709Z,3.43
2019-03-16T04:11:38.631Z,3.47
2019-03-16T04:14:09.561Z,4.07
2019-03-16T04:16:40.526Z,2.30
2019-03-16T04:19:11.748Z,2.50
2019-03-16T04:21:42.702Z,4.70
2019-03-16T04:24:13.604Z,4.10
2019-03-16T04:26:44.586Z,7.97
2019-03-16T04:29:18.587Z,5.17
2019-03-16T04:31:49.655Z,4.60
2019-03-16T04:34:29.368Z,8.87
2019-03-16T04:36:53.211Z,4.07
2019-03-16T04:39:24.291Z,4.20
2019-03-16T04:41:55.255Z,3.47
2019-03-16T04:44:26.177Z,8.13
2019-03-16T04:46:57.103Z,5.30
2019-03-16T04:49:28.153Z,3.87
2019-03-16T04:51:59.299Z,5.10
2019-03-16T04:54:30.272Z,4.10
2019-03-16T04:57:01.318Z,3.87
2019-03-16T04:59:32.215Z,7.00
2019-03-16T05:02:03.187Z,5.63
2019-03-16T05:04:42.303Z,6.50
2019-03-16T05:07:11.791Z,4.83
2019-03-16T05:09:42.696Z,5.40
2019-03-16T05:12:13.612Z,5.20
2019-03-16T05:14:44.552Z,4.20
2019-03-16T05:17:15.525Z,3.33
2019-03-16T05:19:46.496Z,5.80
2019-03-16T05:22:17.619Z,4.03
2019-03-16T05:24:48.501Z,6.33
2019-03-16T05:27:19.405Z,4.00
2019-03-16T05:29:50.377Z,3.37
2019-03-16T05:32:21.339Z,3.83
2019-03-16T05:34:56.739Z,6.40
2019-03-16T05:37:24.853Z,5.37
2019-03-16T05:39:56.057Z,4.17
2019-03-16T05:42:27.049Z,4.03
2019-03-16T05:44:58.013Z,3.00
2019-03-16T05:47:28.920Z,4.20
2019-03-16T05:50:00.016Z,4.80
2019-03-16T05:52:31.166Z,7.17
2019-03-16T05:55:02.306Z,7.53
2019-03-16T05:57:33.579Z,12.93
2019-03-16T06:00:10.837Z,6.53
2019-03-16T06:02:41.872Z,6.77
2019-03-16T06:05:12.873Z,7.83
2019-03-16T06:07:43.792Z,8.17
2019-03-16T06:10:14.718Z,8.30
2019-03-16T06:12:46.678Z,8.27
2019-03-16T06:15:18.010Z,8.37
2019-03-16T06:17:49.075Z,8.10
2019-03-16T06:20:20.085Z,6.83
2019-03-16T06:22:52.706Z,10.33
2019-03-16T06:25:23.779Z,7.47
2019-03-16T06:27:54.615Z,9.80
2019-03-16T06:30:25.978Z,6.43
2019-03-16T06:32:57.707Z,5.33
2019-03-16T06:35:29.538Z,6.57
2019-03-16T06:38:02.208Z,3.53
2019-03-16T06:40:33.095Z,4.80
2019-03-16T06:43:04.085Z,7.30
2019-03-16T06:45:35.276Z,10.17
2019-03-16T06:48:06.742Z,8.67
2019-03-16T06:50:37.801Z,6.17
2019-03-16T06:53:09.029Z,7.77
2019-03-16T06:55:39.984Z,9.37
2019-03-16T06:58:11.235Z,5.17
2019-03-16T07:00:42.346Z,3.13
2019-03-16T07:03:13.722Z,3.87
2019-03-16T07:05:46.114Z,2.83
2019-03-16T07:08:17.391Z,1.97
2019-03-16T07:10:48.295Z,2.47
2019-03-16T07:13:19.224Z,2.00
2019-03-16T07:15:50.278Z,2.23
2019-03-16T07:18:59.015Z,2.23
2019-03-16T07:21:27.572Z,3.40
2019-03-16T07:23:58.444Z,2.90
2019-03-16T07:26:29.351Z,3.47
2019-03-16T07:29:00.505Z,2.60
2019-03-16T07:31:31.465Z,5.53
2019-03-16T07:34:02.540Z,3.50
2019-03-16T07:36:35.935Z,6.07
2019-03-16T07:39:07.801Z,6.40
2019-03-16T07:41:38.770Z,4.63
2019-03-16T07:44:09.680Z,7.40
2019-03-16T07:46:40.859Z,5.73
2019-03-16T07:49:11.775Z,7.33
2019-03-16T07:51:44.497Z,4.33
2019-03-16T07:54:15.418Z,4.80
2019-03-16T07:56:46.409Z,6.27
2019-03-16T07:59:17.303Z,6.73
2019-03-16T08:01:48.480Z,6.57
2019-03-16T08:04:19.603Z,6.37
2019-03-16T08:06:50.676Z,4.00
2019-03-16T08:09:22.145Z,3.87
2019-03-16T08:11:53.185Z,3.77
2019-03-16T08:14:24.173Z,5.33
2019-03-16T08:16:55.355Z,3.37
2019-03-16T08:19:28.547Z,2.60
2019-03-16T08:21:59.813Z,4.73
2019-03-16T08:24:31.058Z,5.37
2019-03-16T08:27:02.267Z,3.83
2019-03-16T08:29:33.239Z,2.93
2019-03-16T08:32:04.489Z,4.20
2019-03-16T08:34:35.985Z,4.27
2019-03-16T08:37:07.131Z,4.00
2019-03-16T08:39:38.237Z,4.57
2019-03-16T08:42:12.215Z,4.73
2019-03-16T08:44:42.243Z,3.37
2019-03-16T08:47:13.201Z,3.13
2019-03-16T08:49:44.184Z,4.53
2019-03-16T08:52:15.084Z,4.80
2019-03-16T08:54:45.984Z,4.67
2019-03-16T08:57:16.941Z,4.50
2019-03-16T08:59:47.899Z,5.93
2019-03-16T09:02:18.825Z,3.37
2019-03-16T09:04:49.774Z,4.83
2019-03-16T09:07:20.753Z,4.70
2019-03-16T09:09:51.629Z,6.47
2019-03-16T09:12:28.274Z,4.13
2019-03-16T09:14:59.199Z,5.83
2019-03-16T09:17:30.211Z,3.00
2019-03-16T09:20:01.344Z,5.97
2019-03-16T09:22:32.313Z,5.40
2019-03-16T09:25:03.281Z,8.33
2019-03-16T09:27:34.455Z,6.80
2019-03-16T09:30:11.533Z,9.17
2019-03-16T09:32:42.482Z,7.33
2019-03-16T09:35:13.567Z,6.10
2019-03-16T09:37:44.450Z,5.07
2019-03-16T09:40:15.492Z,4.13
2019-03-16T09:42:46.419Z,5.60
2019-03-16T09:45:17.431Z,5.70
2019-03-16T09:47:48.301Z,6.13
2019-03-16T09:50:19.210Z,3.67
2019-03-16T09:52:50.084Z,2.63
2019-03-16T09:55:21.078Z,3.20
2019-03-16T09:57:52.052Z,5.30
2019-03-16T10:00:22.899Z,2.47
2019-03-16T10:02:53.875Z,2.23
2019-03-16T10:05:25.110Z,2.83
2019-03-16T10:07:56.099Z,2.50
2019-03-16T10:10:27.042Z,2.40
2019-03-16T10:12:58.492Z,5.53
2019-03-16T10:15:29.429Z,2.97
2019-03-16T10:18:00.411Z,2.20
2019-03-16T10:20:31.416Z,2.07
2019-03-16T10:23:02.416Z,3.63
2019-03-16T10:25:33.315Z,3.13
2019-03-16T10:28:04.328Z,3.17
2019-03-16T10:30:35.568Z,2.33
2019-03-16T10:33:06.593Z,3.03
2019-03-16T10:35:37.533Z,2.30
2019-03-16T10:38:08.580Z,3.57
2019-03-16T10:40:39.540Z,2.83
2019-03-16T10:43:10.512Z,5.80
2019-03-16T10:45:41.470Z,4.63
2019-03-16T10:48:12.394Z,3.67
2019-03-16T10:50:43.284Z,3.53
2019-03-16T10:53:14.204Z,4.13
2019-03-16T10:55:45.170Z,2.47
2019-03-16T10:58:16.137Z,5.07
2019-03-16T11:00:47.108Z,3.77
2019-03-16T11:03:18.020Z,2.33
2019-03-16T11:05:49.018Z,4.13
2019-03-16T11:08:20.076Z,3.13
2019-03-16T11:10:50.958Z,2.50
2019-03-16T11:13:21.927Z,2.50
2019-03-16T11:15:53.154Z,2.50
2019-03-16T11:18:24.149Z,2.03
2019-03-16T11:20:55.271Z,1.67
2019-03-16T11:23:26.327Z,2.53
2019-03-16T11:25:57.212Z,1.63
2019-03-16T11:28:28.127Z,2.43
2019-03-16T11:30:59.016Z,2.60
2019-03-16T11:33:29.968Z,2.30
2019-03-16T11:36:01.016Z,1.50
2019-03-16T11:38:32.023Z,1.67
2019-03-16T11:41:06.274Z,1.20
2019-03-16T11:43:37.171Z,1.40
2019-03-16T11:46:08.237Z,0.90
2019-03-16T11:48:39.181Z,1.83
2019-03-16T11:51:10.172Z,1.20
2019-03-16T11:53:41.166Z,2.90
2019-03-16T11:56:17.865Z,2.70
2019-03-16T11:59:05.557Z,2.63
2019-03-16T12:01:39.276Z,2.30
2019-03-16T12:04:10.208Z,2.10
2019-03-16T12:06:41.208Z,1.50
2019-03-16T12:09:12.306Z,1.83
2019-03-16T12:11:43.229Z,2.33
2019-03-16T12:14:14.126Z,2.00
2019-03-16T12:16:45.092Z,1.63
2019-03-16T12:19:16.120Z,1.47
2019-03-16T12:21:47.001Z,1.83
2019-03-16T12:24:18.030Z,2.47
2019-03-16T12:26:48.918Z,1.83
2019-03-16T12:29:19.822Z,1.97
2019-03-16T12:31:50.800Z,1.60
2019-03-16T12:34:21.750Z,1.93
2019-03-16T12:36:52.696Z,2.00
2019-03-16T12:39:23.665Z,1.80
2019-03-16T12:41:54.626Z,1.20
2019-03-16T12:44:25.766Z,0.90
2019-03-16T12:46:56.743Z,1.20
2019-03-16T12:49:27.841Z,1.60
2019-03-16T12:51:58.866Z,1.30
2019-03-16T12:54:30.085Z,1.43
2019-03-16T12:57:01.105Z,1.00
2019-03-16T12:59:32.090Z,1.20
2019-03-16T13:02:02.968Z,1.87
2019-03-16T13:04:34.011Z,1.83
2019-03-16T13:07:05.034Z,1.53
2019-03-16T13:09:36.062Z,1.00
2019-03-16T13:12:07.199Z,1.03
2019-03-16T13:14:38.431Z,1.70
2019-03-16T13:17:09.549Z,2.00
2019-03-16T13:19:40.511Z,1.23
2019-03-16T13:22:11.394Z,3.43
2019-03-16T13:24:42.306Z,1.73
2019-03-16T13:27:13.475Z,1.33
2019-03-16T13:29:44.644Z,1.53
2019-03-16T13:32:15.683Z,1.60
2019-03-16T13:34:46.582Z,2.27
2019-03-16T13:37:17.619Z,1.97
2019-03-16T13:39:48.545Z,3.17
2019-03-16T13:42:19.484Z,1.37
2019-03-16T13:44:50.415Z,2.20
2019-03-16T13:47:21.397Z,1.37
2019-03-16T13:49:52.342Z,1.10
2019-03-16T13:52:23.325Z,1.90
2019-03-16T13:54:54.295Z,1.73
2019-03-16T13:57:25.469Z,0.80
2019-03-16T13:59:56.365Z,2.00
2019-03-16T14:02:27.379Z,1.10
2019-03-16T14:04:58.491Z,0.83
2019-03-16T14:07:29.881Z,1.57
2019-03-16T14:10:00.744Z,3.23
2019-03-16T14:12:31.659Z,1.30
2019-03-16T14:15:03.055Z,1.13
2019-03-16T14:17:37.417Z,1.43
2019-03-16T14:20:12.969Z,1.97
2019-03-16T14:23:06.869Z,1.83
2019-03-16T14:25:38.093Z,1.23
2019-03-16T14:28:09.075Z,2.70
2019-03-16T14:30:44.949Z,1.40
2019-03-16T14:33:14.625Z,1.03
2019-03-16T14:35:45.600Z,1.13
2019-03-16T14:38:16.667Z,1.03
2019-03-16T14:40:47.538Z,1.77
2019-03-16T14:43:18.428Z,0.53
2019-03-16T14:45:49.350Z,0.80
2019-03-16T14:48:20.301Z,0.80
2019-03-16T14:50:52.872Z,0.90
2019-03-16T14:53:23.939Z,1.13
2019-03-16T14:55:56.359Z,2.73
2019-03-16T14:58:27.459Z,1.57
2019-03-16T15:00:58.755Z,0.87
2019-03-16T15:03:29.924Z,0.77
2019-03-16T15:06:00.909Z,1.47
2019-03-16T15:08:33.698Z,0.60
2019-03-16T15:11:04.579Z,0.83
2019-03-16T15:13:35.712Z,1.27
2019-03-16T15:16:06.830Z,1.13
2019-03-16T15:18:37.887Z,0.70
2019-03-16T15:21:08.899Z,1.90
2019-03-16T15:23:40.071Z,0.97
2019-03-16T15:26:14.048Z,0.40
2019-03-16T15:28:46.658Z,0.60
2019-03-16T15:31:17.531Z,1.53
2019-03-16T15:33:50.255Z,0.60
2019-03-16T15:36:21.447Z,6.43
2019-03-16T15:38:54.132Z,0.60
2019-03-16T15:41:25.976Z,0.60
2019-03-16T15:43:56.935Z,2.60
2019-03-16T15:46:28.010Z,0.70
2019-03-16T15:48:59.272Z,1.40
2019-03-16T15:51:30.504Z,1.17
2019-03-16T15:54:01.450Z,1.60
2019-03-16T15:56:32.549Z,0.60
2019-03-16T15:59:03.515Z,0.50
2019-03-16T16:01:34.603Z,0.40
2019-03-16T16:04:05.690Z,1.33
2019-03-16T16:06:36.668Z,1.00
2019-03-16T16:09:07.804Z,1.10
2019-03-16T16:11:38.930Z,0.50
2019-03-16T16:14:09.894Z,1.03
2019-03-16T16:16:40.888Z,0.50
2019-03-16T16:19:11.748Z,0.50
2019-03-16T16:21:47.050Z,0.67
2019-03-16T16:24:17.988Z,0.80
2019-03-16T16:26:48.980Z,0.73
2019-03-16T16:29:19.969Z,0.87
2019-03-16T16:31:50.951Z,0.80
2019-03-16T16:34:22.311Z,0.93
2019-03-16T16:36:53.549Z,0.93
2019-03-16T16:39:28.078Z,0.50
2019-03-16T16:41:58.979Z,1.30
2019-03-16T16:44:29.947Z,2.57
2019-03-16T16:47:01.149Z,0.80
2019-03-16T16:49:32.149Z,0.73
2019-03-16T16:52:03.140Z,1.67
2019-03-16T16:54:34.092Z,0.97
2019-03-16T16:57:05.397Z,1.70
2019-03-16T16:59:37.707Z,1.63
2019-03-16T17:02:08.680Z,1.43
2019-03-16T17:04:40.076Z,0.70
2019-03-16T17:07:12.988Z,0.70
2019-03-16T17:09:43.870Z,1.00
2019-03-16T17:12:16.379Z,0.50
2019-03-16T17:14:48.852Z,1.73
2019-03-16T17:17:20.192Z,1.20
2019-03-16T17:20:11.792Z,1.40
2019-03-16T17:22:43.041Z,1.57
2019-03-16T17:25:15.982Z,2.73
2019-03-16T17:27:47.383Z,2.37
2019-03-16T17:30:20.940Z,1.67
2019-03-16T17:32:51.853Z,1.27
2019-03-16T17:35:24.528Z,1.00
2019-03-16T17:40:52.789Z,1.17
2019-03-16T17:43:23.787Z,1.20
2019-03-16T17:45:54.726Z,2.20
2019-03-16T17:48:25.827Z,0.93
2019-03-16T17:51:00.470Z,1.70
2019-03-16T17:53:31.956Z,1.47
2019-03-16T17:56:06.003Z,1.00
2019-03-16T17:58:36.948Z,1.23
2019-03-16T18:01:08.039Z,1.80
2019-03-16T18:03:39.384Z,3.70
2019-03-16T18:06:10.431Z,3.87
2019-03-16T18:08:41.344Z,2.30
2019-03-16T18:11:12.277Z,4.87
2019-03-16T18:13:43.301Z,3.80
2019-03-16T18:16:14.415Z,15.10
2019-03-16T18:18:45.943Z,17.80
2019-03-16T18:21:17.288Z,12.03
2019-03-16T18:23:50.867Z,9.10
2019-03-16T18:26:20.990Z,7.90
2019-03-16T18:28:53.651Z,6.07
2019-03-16T18:31:24.665Z,4.30
2019-03-16T18:33:56.083Z,6.40
2019-03-16T18:36:27.051Z,6.00
2019-03-16T18:39:00.318Z,5.17
2019-03-16T18:41:31.444Z,8.77
2019-03-16T18:44:02.542Z,6.97
2019-03-16T18:46:33.453Z,7.97
2019-03-16T18:49:04.402Z,8.50
2019-03-16T18:51:35.370Z,6.23
2019-03-16T18:54:06.359Z,9.40
2019-03-16T18:56:37.317Z,5.87
2019-03-16T18:59:09.337Z,4.07
2019-03-16T19:01:40.333Z,7.77
2019-03-16T19:04:11.346Z,8.10
2019-03-16T19:06:42.330Z,6.37
2019-03-16T19:09:13.271Z,13.37
2019-03-16T19:11:44.269Z,19.63
2019-03-16T19:14:15.284Z,13.50
2019-03-16T19:16:46.316Z,11.10
2019-03-16T19:19:17.209Z,11.93
2019-03-16T19:21:48.205Z,12.87
2019-03-16T19:24:19.244Z,8.63
2019-03-16T19:26:50.364Z,10.10
2019-03-16T19:29:21.326Z,9.67
2019-03-16T19:31:52.375Z,10.70
2019-03-16T19:34:23.350Z,10.30
2019-03-16T19:36:54.308Z,9.27
2019-03-16T19:39:25.327Z,10.80
2019-03-16T19:41:56.344Z,14.70
2019-03-16T19:44:27.366Z,16.37
2019-03-16T19:46:58.298Z,13.83
2019-03-16T19:49:29.388Z,12.67
2019-03-16T19:52:00.404Z,13.23
2019-03-16T19:54:31.648Z,26.50
2019-03-16T19:57:14.966Z,24.63
2019-03-16T19:59:35.267Z,15.57
2019-03-16T20:02:06.336Z,14.13
2019-03-16T20:04:37.251Z,11.67
2019-03-16T20:07:18.787Z,12.13
2019-03-16T20:09:40.826Z,11.77
2019-03-16T20:12:11.876Z,15.13
2019-03-16T20:14:44.476Z,7.17
2019-03-16T20:17:15.614Z,7.00
2019-03-16T20:19:46.594Z,10.87
2019-03-16T20:22:17.656Z,12.47
2019-03-16T20:24:48.653Z,12.67
2019-03-16T20:27:19.627Z,30.63
2019-03-16T20:29:50.628Z,19.67
2019-03-16T20:32:21.534Z,13.97
2019-03-16T20:34:52.440Z,14.00
2019-03-16T20:37:23.457Z,14.57
2019-03-16T20:39:54.456Z,14.33
2019-03-16T20:42:25.387Z,15.23
2019-03-16T20:44:56.411Z,15.07
2019-03-16T20:47:31.183Z,11.13
2019-03-16T20:50:01.785Z,8.73
2019-03-16T20:52:32.777Z,12.60
2019-03-16T20:55:04.703Z,9.13
2019-03-16T20:57:35.726Z,10.53
2019-03-16T21:00:12.639Z,11.40
2019-03-16T21:02:43.630Z,9.27
2019-03-16T21:05:14.798Z,11.60
2019-03-16T21:07:45.779Z,11.03
2019-03-16T21:10:16.789Z,9.70
2019-03-16T21:12:47.831Z,8.60
2019-03-16T21:15:19.227Z,7.33
2019-03-16T21:17:50.142Z,8.23
2019-03-16T21:20:21.197Z,8.40
2019-03-16T21:22:52.141Z,12.10
2019-03-16T21:25:23.406Z,8.97
2019-03-16T21:27:54.347Z,7.83
2019-03-16T21:30:25.354Z,9.17
2019-03-16T21:32:59.640Z,7.37
2019-03-16T21:35:30.584Z,8.07
2019-03-16T21:38:01.553Z,8.37
2019-03-16T21:40:32.547Z,7.60
2019-03-16T21:43:29.682Z,8.73
2019-03-16T21:46:01.340Z,10.20
2019-03-16T21:48:32.236Z,12.43
2019-03-16T21:51:05.981Z,9.83
2019-03-16T21:53:36.923Z,10.57
2019-03-16T21:56:08.392Z,10.10
2019-03-16T21:58:39.496Z,10.03
2019-03-16T22:01:10.570Z,11.40
2019-03-16T22:03:42.441Z,12.40
2019-03-16T22:06:13.471Z,11.33
2019-03-16T22:08:44.429Z,9.47
2019-03-16T22:11:15.391Z,8.20
2019-03-16T22:13:46.397Z,8.53
2019-03-16T22:16:17.397Z,8.60
2019-03-16T22:18:48.469Z,9.70
2019-03-16T22:21:19.410Z,8.73
2019-03-16T22:23:50.437Z,7.70
2019-03-16T22:26:21.497Z,9.77
2019-03-16T22:28:52.547Z,12.33
2019-03-16T22:31:23.507Z,7.73
2019-03-16T22:33:55.021Z,8.43
2019-03-16T22:36:25.955Z,9.00
2019-03-16T22:38:56.840Z,8.77
2019-03-16T22:41:27.748Z,7.70
2019-03-16T22:43:58.776Z,8.50
2019-03-16T22:46:29.790Z,6.77
2019-03-16T22:49:00.865Z,11.07
2019-03-16T22:51:31.878Z,7.67
2019-03-16T22:54:02.843Z,7.77
2019-03-16T22:56:34.059Z,8.90
2019-03-16T22:59:05.081Z,7.70
2019-03-16T23:01:36.113Z,6.87
2019-03-16T23:04:07.403Z,9.80
2019-03-16T23:06:38.558Z,7.50
2019-03-16T23:09:09.567Z,7.87
2019-03-16T23:11:40.547Z,11.13
2019-03-16T23:14:11.407Z,7.83
2019-03-16T23:16:42.279Z,8.00
2019-03-16T23:19:13.251Z,7.07
2019-03-16T23:22:28.469Z,8.67
2019-03-16T23:24:59.662Z,8.00
2019-03-16T23:27:30.647Z,7.40
2019-03-16T23:30:01.648Z,8.50
2019-03-16T23:32:32.558Z,7.80
2019-03-16T23:35:03.791Z,6.97
2019-03-16T23:37:34.852Z,7.00
2019-03-16T23:40:08.356Z,9.17
2019-03-16T23:42:39.414Z,9.27
2019-03-16T23:45:11.837Z,7.73
2019-03-16T23:47:43.040Z,6.40
2019-03-16T23:50:15.176Z,7.33
2019-03-16T23:52:46.210Z,9.13
2019-03-16T23:55:17.132Z,9.03
2019-03-16T23:57:48.149Z,7.37
